createdAt,value
2019-05-25T00:02:13.833Z,13.90
2019-05-25T00:04:42.472Z,15.60
2019-05-25T00:07:11.137Z,15.68
2019-05-25T00:09:39.770Z,16.82
2019-05-25T00:12:08.311Z,16.00
2019-05-25T00:14:37.431Z,16.90
2019-05-25T00:17:06.046Z,16.62
2019-05-25T00:19:34.631Z,17.00
2019-05-25T00:22:03.167Z,17.10
2019-05-25T00:24:31.757Z,15.03
2019-05-25T00:27:00.378Z,16.55
2019-05-25T00:29:29.066Z,16.50
2019-05-25T00:31:57.611Z,14.73
2019-05-25T00:34:28.056Z,14.60
2019-05-25T00:36:56.557Z,16.12
2019-05-25T00:39:25.173Z,15.65
2019-05-25T00:41:53.783Z,15.40
2019-05-25T00:44:22.324Z,15.45
2019-05-25T00:46:50.986Z,15.08
2019-05-25T00:49:19.600Z,13.55
2019-05-25T00:51:48.219Z,15.13
2019-05-25T00:54:27.429Z,15.45
2019-05-25T00:56:47.177Z,14.47
2019-05-25T00:59:15.784Z,13.95
2019-05-25T01:01:44.400Z,14.03
2019-05-25T01:04:15.680Z,13.98
2019-05-25T01:06:44.160Z,15.20
2019-05-25T01:09:12.778Z,14.53
2019-05-25T01:11:41.284Z,15.45
2019-05-25T01:14:11.328Z,13.58
2019-05-25T01:16:39.890Z,14.20
2019-05-25T01:19:08.455Z,14.47
2019-05-25T01:21:36.991Z,15.30
2019-05-25T01:24:05.888Z,13.72
2019-05-25T01:26:34.651Z,13.65
2019-05-25T01:29:03.452Z,16.07
2019-05-25T01:31:31.991Z,14.90
2019-05-25T01:34:00.564Z,16.15
2019-05-25T01:36:29.112Z,15.10
2019-05-25T01:38:57.675Z,16.27
2019-05-25T01:41:26.206Z,15.93
2019-05-25T01:43:54.756Z,15.08
2019-05-25T01:46:23.303Z,17.82
2019-05-25T01:48:51.943Z,17.42
2019-05-25T01:51:20.700Z,15.83
2019-05-25T01:53:49.362Z,17.65
2019-05-25T01:56:18.001Z,17.77
2019-05-25T01:58:46.641Z,17.42
2019-05-25T02:01:15.431Z,16.87
2019-05-25T02:03:44.090Z,18.02
2019-05-25T02:06:12.671Z,17.82
2019-05-25T02:08:41.173Z,17.50
2019-05-25T02:11:12.719Z,15.72
2019-05-25T02:13:41.366Z,15.45
2019-05-25T02:16:11.187Z,16.82
2019-05-25T02:18:39.734Z,17.60
2019-05-25T02:21:08.408Z,16.30
2019-05-25T02:23:37.179Z,17.57
2019-05-25T02:26:05.792Z,16.85
2019-05-25T02:28:34.379Z,17.73
2019-05-25T02:31:02.854Z,16.75
2019-05-25T02:33:31.576Z,16.77
2019-05-25T02:36:00.116Z,17.07
2019-05-25T02:38:28.723Z,17.32
2019-05-25T02:40:57.829Z,17.62
2019-05-25T02:43:26.461Z,17.95
2019-05-25T02:45:55.164Z,17.15
2019-05-25T02:48:23.717Z,18.35
2019-05-25T02:50:53.157Z,17.05
2019-05-25T02:53:21.753Z,16.97
2019-05-25T02:55:50.457Z,17.45
2019-05-25T02:58:19.070Z,17.30
2019-05-25T03:00:47.684Z,17.98
2019-05-25T03:03:16.717Z,15.58
2019-05-25T03:05:46.508Z,16.50
2019-05-25T03:08:15.116Z,18.73
2019-05-25T03:10:44.501Z,15.58
2019-05-25T03:13:13.112Z,16.48
2019-05-25T03:15:41.660Z,16.35
2019-05-25T03:18:10.271Z,16.05
2019-05-25T03:20:38.884Z,16.50
2019-05-25T03:23:07.496Z,17.60
2019-05-25T03:25:48.681Z,17.67
2019-05-25T03:28:06.437Z,17.48
2019-05-25T03:30:37.112Z,17.87
2019-05-25T03:33:06.299Z,17.57
2019-05-25T03:35:34.954Z,17.37
2019-05-25T03:38:03.617Z,18.75
2019-05-25T03:40:32.252Z,17.52
2019-05-25T03:43:00.865Z,16.12
2019-05-25T03:45:29.499Z,19.73
2019-05-25T03:47:58.557Z,18.00
2019-05-25T03:50:27.086Z,17.52
2019-05-25T03:52:55.734Z,17.55
2019-05-25T03:55:24.391Z,16.87
2019-05-25T03:57:52.941Z,16.93
2019-05-25T04:00:33.253Z,16.52
2019-05-25T04:03:01.971Z,16.93
2019-05-25T04:05:30.615Z,18.50
2019-05-25T04:07:59.153Z,17.55
2019-05-25T04:10:27.765Z,15.95
2019-05-25T04:12:56.297Z,15.58
2019-05-25T04:15:25.303Z,15.50
2019-05-25T04:17:53.849Z,16.17
2019-05-25T04:20:22.505Z,16.50
2019-05-25T04:22:51.125Z,15.75
2019-05-25T04:25:19.746Z,15.53
2019-05-25T04:27:49.571Z,16.62
2019-05-25T04:30:18.718Z,13.95
2019-05-25T04:32:47.742Z,15.93
2019-05-25T04:35:16.697Z,15.63
2019-05-25T04:37:45.267Z,15.00
2019-05-25T04:40:13.915Z,14.65
2019-05-25T04:42:42.537Z,16.73
2019-05-25T04:45:11.315Z,16.65
2019-05-25T04:47:39.805Z,15.95
2019-05-25T04:50:09.090Z,15.88
2019-05-25T04:52:40.977Z,16.35
2019-05-25T04:55:08.902Z,17.67
2019-05-25T04:57:37.645Z,17.05
2019-05-25T05:00:08.159Z,16.50
2019-05-25T05:02:36.779Z,16.97
2019-05-25T05:05:06.738Z,14.60
2019-05-25T05:07:35.348Z,14.58
2019-05-25T05:10:08.124Z,16.23
2019-05-25T05:12:36.756Z,15.10
2019-05-25T05:15:07.272Z,15.68
2019-05-25T05:17:35.880Z,15.85
2019-05-25T05:20:07.216Z,15.60
2019-05-25T05:22:35.823Z,16.42
2019-05-25T05:25:05.936Z,16.57
2019-05-25T05:27:34.477Z,16.07
2019-05-25T05:30:04.762Z,15.45
2019-05-25T05:32:33.377Z,14.78
2019-05-25T05:35:02.041Z,14.73
2019-05-25T05:37:32.199Z,16.65
2019-05-25T05:40:02.199Z,16.25
2019-05-25T05:42:33.077Z,15.18
2019-05-25T05:45:03.156Z,15.90
2019-05-25T05:47:34.700Z,12.40
2019-05-25T05:50:04.823Z,13.60
2019-05-25T05:52:38.741Z,15.15
2019-05-25T05:55:10.258Z,14.00
2019-05-25T05:57:38.905Z,13.58
2019-05-25T06:00:10.953Z,14.30
2019-05-25T06:02:39.594Z,12.68
2019-05-25T06:05:08.902Z,13.10
2019-05-25T06:07:37.514Z,11.22
2019-05-25T06:10:07.430Z,11.20
2019-05-25T06:12:36.041Z,11.85
2019-05-25T06:15:06.680Z,10.75
2019-05-25T06:17:35.295Z,10.90
2019-05-25T06:20:07.762Z,10.98
2019-05-25T06:22:36.408Z,13.03
2019-05-25T06:25:07.936Z,13.28
2019-05-25T06:27:37.079Z,12.25
2019-05-25T06:30:09.588Z,11.55
2019-05-25T06:32:38.382Z,11.48
2019-05-25T06:35:07.855Z,10.90
2019-05-25T06:37:36.546Z,12.53
2019-05-25T06:40:10.143Z,12.63
2019-05-25T06:42:38.811Z,13.22
2019-05-25T06:45:09.669Z,11.15
2019-05-25T06:47:38.283Z,11.25
2019-05-25T06:50:07.902Z,12.68
2019-05-25T06:52:36.486Z,13.20
2019-05-25T06:55:07.371Z,10.55
2019-05-25T06:57:43.266Z,12.15
2019-05-25T07:00:08.777Z,10.60
2019-05-25T07:02:38.072Z,12.25
2019-05-25T07:05:09.983Z,12.60
2019-05-25T07:07:38.602Z,12.05
2019-05-25T07:10:09.728Z,10.98
2019-05-25T07:12:38.384Z,10.50
2019-05-25T07:15:10.399Z,10.93
2019-05-25T07:17:38.952Z,12.10
2019-05-25T07:20:08.385Z,11.80
2019-05-25T07:22:37.004Z,13.10
2019-05-25T07:25:07.598Z,11.10
2019-05-25T07:27:36.301Z,10.72
2019-05-25T07:30:09.978Z,10.58
2019-05-25T07:32:38.614Z,12.25
2019-05-25T07:35:08.123Z,12.40
2019-05-25T07:37:39.739Z,12.63
2019-05-25T07:40:09.021Z,14.00
2019-05-25T07:42:37.787Z,10.72
2019-05-25T07:45:08.768Z,11.43
2019-05-25T07:47:37.378Z,13.08
2019-05-25T07:50:09.955Z,14.47
2019-05-25T07:52:38.780Z,13.65
2019-05-25T07:55:08.127Z,11.43
2019-05-25T07:57:37.034Z,12.25
2019-05-25T08:00:07.250Z,11.93
2019-05-25T08:02:35.733Z,11.88
2019-05-25T08:05:06.260Z,14.55
2019-05-25T08:07:34.876Z,14.35
2019-05-25T08:10:03.889Z,13.78
2019-05-25T08:12:32.605Z,13.15
2019-05-25T08:15:01.265Z,13.95
2019-05-25T08:17:30.033Z,12.85
2019-05-25T08:19:58.579Z,14.78
2019-05-25T08:22:27.052Z,13.70
2019-05-25T08:24:55.592Z,13.78
2019-05-25T08:27:24.208Z,14.13
2019-05-25T08:29:52.864Z,14.40
2019-05-25T08:32:21.475Z,15.00
2019-05-25T08:34:49.954Z,16.30
2019-05-25T08:37:18.619Z,12.73
2019-05-25T08:39:47.560Z,15.08
2019-05-25T08:42:16.170Z,14.40
2019-05-25T08:44:44.857Z,14.47
2019-05-25T08:47:13.399Z,15.03
2019-05-25T08:49:41.944Z,15.18
2019-05-25T08:52:10.493Z,14.70
2019-05-25T08:54:39.121Z,14.87
2019-05-25T08:57:07.762Z,13.05
2019-05-25T08:59:36.336Z,13.28
2019-05-25T09:02:04.955Z,15.28
2019-05-25T09:04:33.497Z,16.07
2019-05-25T09:07:02.133Z,15.03
2019-05-25T09:09:30.600Z,14.05
2019-05-25T09:11:59.219Z,13.03
2019-05-25T09:14:27.761Z,13.93
2019-05-25T09:16:56.304Z,13.40
2019-05-25T09:19:24.812Z,13.62
2019-05-25T09:22:02.378Z,13.80
2019-05-25T09:24:23.838Z,11.57
2019-05-25T09:26:52.385Z,11.50
2019-05-25T09:29:21.008Z,11.55
2019-05-25T09:31:49.665Z,14.18
2019-05-25T09:34:18.211Z,11.95
2019-05-25T09:36:46.831Z,12.05
2019-05-25T09:39:15.388Z,11.78
2019-05-25T09:41:43.929Z,12.68
2019-05-25T09:44:12.533Z,12.45
2019-05-25T09:46:41.068Z,13.98
2019-05-25T09:49:09.830Z,13.65
2019-05-25T09:51:38.444Z,12.47
2019-05-25T09:54:06.993Z,11.60
2019-05-25T09:56:35.714Z,14.15
2019-05-25T09:59:17.625Z,13.75
2019-05-25T10:01:34.702Z,13.43
2019-05-25T10:04:03.357Z,10.82
2019-05-25T10:06:31.953Z,11.22
2019-05-25T10:09:00.628Z,12.13
2019-05-25T10:11:29.251Z,12.05
2019-05-25T10:13:57.847Z,12.43
2019-05-25T10:16:26.507Z,10.53
2019-05-25T10:18:55.147Z,9.65
2019-05-25T10:21:23.688Z,10.58
2019-05-25T10:23:52.303Z,11.60
2019-05-25T10:26:23.015Z,10.55
2019-05-25T10:28:51.100Z,11.53
2019-05-25T10:31:19.648Z,11.80
2019-05-25T10:33:49.093Z,10.88
2019-05-25T10:36:17.705Z,11.25
2019-05-25T10:38:46.348Z,10.03
2019-05-25T10:41:14.976Z,10.18
2019-05-25T10:43:43.534Z,8.73
2019-05-25T10:46:12.245Z,11.70
2019-05-25T10:48:40.848Z,12.47
2019-05-25T10:51:09.459Z,12.90
2019-05-25T10:53:38.000Z,11.45
2019-05-25T10:56:06.656Z,9.90
2019-05-25T10:58:35.341Z,9.40
2019-05-25T11:01:03.960Z,11.03
2019-05-25T11:03:32.497Z,12.15
2019-05-25T11:06:01.143Z,11.03
2019-05-25T11:08:30.067Z,9.75
2019-05-25T11:10:58.675Z,9.13
2019-05-25T11:13:28.947Z,9.00
2019-05-25T11:15:57.585Z,8.65
2019-05-25T11:18:26.351Z,11.10
2019-05-25T11:20:54.859Z,10.68
2019-05-25T11:23:23.469Z,9.88
2019-05-25T11:25:52.078Z,11.45
2019-05-25T11:28:21.015Z,10.35
2019-05-25T11:30:49.534Z,10.03
2019-05-25T11:33:18.109Z,9.20
2019-05-25T11:35:46.755Z,7.33
2019-05-25T11:38:15.367Z,8.10
2019-05-25T11:40:43.976Z,9.18
2019-05-25T11:43:12.469Z,9.88
2019-05-25T11:45:41.086Z,10.10
2019-05-25T11:48:09.630Z,8.83
2019-05-25T11:50:38.236Z,7.33
2019-05-25T11:53:06.882Z,7.50
2019-05-25T11:55:35.482Z,7.60
2019-05-25T11:58:04.301Z,6.65
2019-05-25T12:00:33.630Z,6.58
2019-05-25T12:03:02.209Z,8.75
2019-05-25T12:05:30.816Z,8.53
2019-05-25T12:07:59.447Z,8.38
2019-05-25T12:10:28.052Z,10.05
2019-05-25T12:12:56.672Z,8.20
2019-05-25T12:15:25.341Z,7.30
2019-05-25T12:17:53.803Z,8.00
2019-05-25T12:20:22.886Z,9.48
2019-05-25T12:22:51.427Z,9.50
2019-05-25T12:25:20.061Z,8.63
2019-05-25T12:27:49.498Z,7.80
2019-05-25T12:30:20.715Z,7.60
2019-05-25T12:32:49.383Z,7.60
2019-05-25T12:35:19.538Z,8.90
2019-05-25T12:37:48.932Z,8.28
2019-05-25T12:40:18.070Z,9.55
2019-05-25T12:42:46.712Z,8.10
2019-05-25T12:45:15.759Z,6.83
2019-05-25T12:47:44.386Z,6.22
2019-05-25T12:50:13.492Z,5.92
2019-05-25T12:52:42.687Z,6.22
2019-05-25T12:55:11.402Z,8.35
2019-05-25T12:57:40.005Z,8.80
2019-05-25T13:00:16.182Z,8.40
2019-05-25T13:02:39.927Z,8.45
2019-05-25T13:05:09.196Z,7.08
2019-05-25T13:07:37.804Z,5.90
2019-05-25T13:10:07.802Z,6.50
2019-05-25T13:12:36.411Z,8.40
2019-05-25T13:15:07.023Z,9.28
2019-05-25T13:17:35.550Z,9.18
2019-05-25T13:20:05.963Z,7.95
2019-05-25T13:22:34.438Z,8.10
2019-05-25T13:25:03.053Z,6.78
2019-05-25T13:27:31.729Z,9.30
2019-05-25T13:30:03.024Z,8.10
2019-05-25T13:32:30.702Z,7.60
2019-05-25T13:34:59.182Z,8.30
2019-05-25T13:37:27.795Z,8.30
2019-05-25T13:39:56.298Z,8.40
2019-05-25T13:42:24.819Z,9.55
2019-05-25T13:44:53.431Z,9.00
2019-05-25T13:47:22.097Z,8.05
2019-05-25T13:49:50.670Z,8.68
2019-05-25T13:52:19.260Z,9.18
2019-05-25T13:54:47.806Z,9.25
2019-05-25T13:57:16.386Z,9.20
2019-05-25T13:59:45.129Z,9.23
2019-05-25T14:02:13.681Z,9.88
2019-05-25T14:04:42.143Z,9.45
2019-05-25T14:07:10.761Z,9.78
2019-05-25T14:09:39.436Z,10.03
2019-05-25T14:12:07.991Z,9.23
2019-05-25T14:14:36.458Z,9.00
2019-05-25T14:17:05.169Z,9.50
2019-05-25T14:19:33.707Z,9.58
2019-05-25T14:22:02.345Z,9.60
2019-05-25T14:24:30.872Z,10.28
2019-05-25T14:26:59.533Z,10.05
2019-05-25T14:29:28.073Z,7.92
2019-05-25T14:31:56.779Z,9.88
2019-05-25T14:34:25.514Z,10.20
2019-05-25T14:36:53.986Z,11.35
2019-05-25T14:39:22.530Z,11.60
2019-05-25T14:41:51.087Z,11.10
2019-05-25T14:44:19.825Z,11.48
2019-05-25T14:46:48.474Z,11.12
2019-05-25T14:49:17.620Z,10.30
2019-05-25T14:51:46.387Z,11.45
2019-05-25T14:54:14.860Z,11.12
2019-05-25T14:56:43.697Z,10.43
2019-05-25T14:59:12.341Z,10.38
2019-05-25T15:01:40.878Z,10.88
2019-05-25T15:04:09.490Z,10.20
2019-05-25T15:06:38.096Z,8.65
2019-05-25T15:09:07.969Z,8.93
2019-05-25T15:11:36.535Z,8.85
2019-05-25T15:14:05.143Z,9.05
2019-05-25T15:16:33.784Z,10.10
2019-05-25T15:19:02.409Z,8.75
2019-05-25T15:21:31.100Z,11.25
2019-05-25T15:23:59.680Z,11.95
2019-05-25T15:26:28.220Z,9.80
2019-05-25T15:28:56.875Z,10.45
2019-05-25T15:31:25.494Z,9.78
2019-05-25T15:33:54.189Z,10.13
2019-05-25T15:36:22.663Z,10.72
2019-05-25T15:38:52.664Z,8.65
2019-05-25T15:41:21.139Z,8.93
2019-05-25T15:43:49.711Z,9.90
2019-05-25T15:46:18.243Z,9.00
2019-05-25T15:48:46.887Z,9.48
2019-05-25T15:51:15.534Z,9.05
2019-05-25T15:53:44.150Z,9.70
2019-05-25T15:56:12.615Z,9.00
2019-05-25T15:58:41.161Z,11.68
2019-05-25T16:01:09.797Z,9.38
2019-05-25T16:03:38.384Z,11.03
2019-05-25T16:06:06.931Z,9.53
2019-05-25T16:08:37.124Z,9.63
2019-05-25T16:11:05.735Z,9.20
2019-05-25T16:13:34.276Z,10.53
2019-05-25T16:16:02.939Z,11.00
2019-05-25T16:18:31.547Z,11.80
2019-05-25T16:21:00.021Z,11.28
2019-05-25T16:23:28.560Z,11.20
2019-05-25T16:25:57.253Z,9.40
2019-05-25T16:28:25.800Z,10.78
2019-05-25T16:30:54.515Z,11.80
2019-05-25T16:33:23.124Z,12.53
2019-05-25T16:35:52.258Z,11.45
2019-05-25T16:38:21.300Z,11.88
2019-05-25T16:40:49.904Z,10.30
2019-05-25T16:43:18.639Z,11.50
2019-05-25T16:45:47.236Z,11.45
2019-05-25T16:48:15.852Z,13.22
2019-05-25T16:50:44.332Z,14.05
2019-05-25T16:53:12.966Z,12.47
2019-05-25T16:55:41.583Z,13.00
2019-05-25T16:58:10.191Z,15.25
2019-05-25T17:00:38.842Z,14.18
2019-05-25T17:03:07.712Z,13.15
2019-05-25T17:05:36.324Z,12.33
2019-05-25T17:08:04.981Z,11.70
2019-05-25T17:10:33.526Z,10.72
2019-05-25T17:13:03.602Z,10.95
2019-05-25T17:15:32.868Z,10.95
2019-05-25T17:18:04.668Z,11.22
2019-05-25T17:20:31.843Z,11.90
2019-05-25T17:23:00.556Z,10.23
2019-05-25T17:25:29.217Z,13.75
2019-05-25T17:27:57.822Z,10.95
2019-05-25T17:30:45.361Z,11.35
2019-05-25T17:33:14.426Z,13.10
2019-05-25T17:35:44.338Z,11.60
2019-05-25T17:38:12.990Z,13.43
2019-05-25T17:40:41.651Z,13.65
2019-05-25T17:43:10.288Z,14.58
2019-05-25T17:45:38.998Z,15.80
2019-05-25T17:48:07.617Z,19.52
2019-05-25T17:50:36.242Z,26.40
2019-05-25T17:53:05.118Z,28.60
2019-05-25T17:55:33.731Z,26.52
2019-05-25T17:58:02.280Z,21.12
2019-05-25T18:00:42.199Z,18.40
2019-05-25T18:03:10.867Z,15.88
2019-05-25T18:05:39.712Z,15.40
2019-05-25T18:08:09.120Z,16.97
2019-05-25T18:10:52.150Z,17.87
2019-05-25T18:13:08.367Z,17.50
2019-05-25T18:15:36.975Z,16.75
2019-05-25T18:18:07.361Z,16.55
2019-05-25T18:20:36.277Z,17.25
2019-05-25T18:23:05.290Z,15.75
2019-05-25T18:25:33.827Z,15.83
2019-05-25T18:28:02.448Z,17.80
2019-05-25T18:30:31.267Z,18.30
2019-05-25T18:33:00.089Z,18.98
2019-05-25T18:35:28.702Z,18.73
2019-05-25T18:37:57.315Z,16.90
2019-05-25T18:40:26.226Z,16.60
2019-05-25T18:42:54.800Z,15.85
2019-05-25T18:45:24.765Z,18.55
2019-05-25T18:47:53.276Z,19.73
2019-05-25T18:50:22.318Z,18.85
2019-05-25T18:52:50.814Z,17.57
2019-05-25T18:55:19.828Z,16.10
2019-05-25T18:57:48.436Z,16.50
2019-05-25T19:00:17.661Z,15.98
2019-05-25T19:02:46.221Z,18.48
2019-05-25T19:05:15.674Z,18.02
2019-05-25T19:07:44.266Z,16.77
2019-05-25T19:10:13.317Z,16.52
2019-05-25T19:12:41.977Z,15.55
2019-05-25T19:15:11.321Z,16.00
2019-05-25T19:17:40.000Z,16.35
2019-05-25T19:20:09.570Z,15.50
2019-05-25T19:22:38.247Z,17.37
2019-05-25T19:25:09.536Z,16.65
2019-05-25T19:27:38.144Z,16.37
2019-05-25T19:30:08.652Z,15.68
2019-05-25T19:32:37.204Z,17.32
2019-05-25T19:35:06.695Z,16.17
2019-05-25T19:37:35.156Z,16.50
2019-05-25T19:40:08.999Z,17.75
2019-05-25T19:42:36.035Z,15.32
2019-05-25T19:45:07.697Z,16.15
2019-05-25T19:47:36.308Z,17.70
2019-05-25T19:50:06.993Z,17.15
2019-05-25T19:52:38.563Z,17.23
2019-05-25T19:55:07.869Z,18.48
2019-05-25T19:57:37.879Z,16.50
2019-05-25T20:00:08.738Z,17.55
2019-05-25T20:02:37.756Z,19.40
2019-05-25T20:05:16.464Z,19.48
2019-05-25T20:07:40.264Z,18.25
2019-05-25T20:10:09.989Z,17.35
2019-05-25T20:12:38.870Z,16.10
2019-05-25T20:15:08.688Z,17.70
2019-05-25T20:17:37.959Z,18.48
2019-05-25T20:20:09.295Z,18.50
2019-05-25T20:22:37.813Z,19.35
2019-05-25T20:25:07.169Z,17.32
2019-05-25T20:27:37.140Z,16.65
2019-05-25T20:30:07.787Z,17.57
2019-05-25T20:32:36.400Z,18.32
2019-05-25T20:35:06.325Z,19.50
2019-05-25T20:37:34.949Z,18.02
2019-05-25T20:40:04.559Z,18.75
2019-05-25T20:42:33.193Z,17.20
2019-05-25T20:45:01.767Z,16.87
2019-05-25T20:47:30.652Z,17.50
2019-05-25T20:50:02.224Z,16.67
2019-05-25T20:52:30.909Z,15.18
2019-05-25T20:54:59.444Z,15.48
2019-05-25T20:57:28.005Z,15.30
2019-05-25T20:59:56.628Z,15.10
2019-05-25T21:02:25.858Z,14.87
2019-05-25T21:04:54.429Z,16.00
2019-05-25T21:07:22.997Z,14.65
2019-05-25T21:09:51.611Z,15.63
2019-05-25T21:12:20.210Z,15.58
2019-05-25T21:14:48.830Z,15.23
2019-05-25T21:17:17.464Z,14.85
2019-05-25T21:19:46.265Z,15.05
2019-05-25T21:22:14.767Z,15.08
2019-05-25T21:24:43.338Z,15.40
2019-05-25T21:27:13.388Z,15.65
2019-05-25T21:29:42.030Z,14.50
2019-05-25T21:32:10.686Z,14.68
2019-05-25T21:34:39.324Z,13.83
2019-05-25T21:37:09.451Z,15.40
2019-05-25T21:39:38.084Z,14.33
2019-05-25T21:42:06.709Z,14.23
2019-05-25T21:44:35.373Z,15.78
2019-05-25T21:47:04.004Z,14.58
2019-05-25T21:49:32.688Z,13.93
2019-05-25T21:52:01.305Z,14.00
2019-05-25T21:54:29.926Z,13.75
2019-05-25T21:56:58.546Z,14.38
2019-05-25T21:59:27.151Z,14.13
2019-05-25T22:01:55.777Z,13.95
2019-05-25T22:04:24.396Z,14.35
2019-05-25T22:06:53.031Z,15.28
2019-05-25T22:09:21.586Z,15.68
2019-05-25T22:11:50.206Z,15.70
2019-05-25T22:14:18.826Z,15.10
2019-05-25T22:16:47.489Z,13.88
2019-05-25T22:19:16.122Z,13.98
2019-05-25T22:21:46.445Z,13.93
2019-05-25T22:24:14.875Z,14.35
2019-05-25T22:26:43.357Z,15.30
2019-05-25T22:29:12.176Z,15.03
2019-05-25T22:31:40.787Z,14.83
2019-05-25T22:34:09.405Z,13.95
2019-05-25T22:36:40.955Z,15.18
2019-05-25T22:39:08.938Z,15.38
2019-05-25T22:41:38.733Z,15.65
2019-05-25T22:44:07.379Z,15.32
2019-05-25T22:46:35.923Z,17.02
2019-05-25T22:49:04.880Z,15.75
2019-05-25T22:51:33.517Z,14.00
2019-05-25T22:54:02.159Z,15.63
2019-05-25T22:56:30.765Z,16.48
2019-05-25T22:58:59.374Z,14.40
2019-05-25T23:01:27.921Z,16.27
2019-05-25T23:03:56.468Z,16.45
2019-05-25T23:06:26.587Z,15.50
2019-05-25T23:08:55.215Z,16.17
2019-05-25T23:11:23.861Z,14.45
2019-05-25T23:13:52.443Z,15.32
2019-05-25T23:16:21.086Z,16.30
2019-05-25T23:18:49.635Z,16.15
2019-05-25T23:21:18.302Z,15.08
2019-05-25T23:23:46.852Z,15.60
2019-05-25T23:26:15.631Z,15.45
2019-05-25T23:28:44.186Z,16.52
2019-05-25T23:31:14.319Z,16.70
2019-05-25T23:33:42.831Z,16.15
2019-05-25T23:36:11.477Z,16.65
2019-05-25T23:38:40.062Z,16.60
2019-05-25T23:41:08.615Z,16.75
2019-05-25T23:43:37.296Z,16.30
2019-05-25T23:46:06.163Z,15.28
2019-05-25T23:48:34.781Z,14.75
2019-05-25T23:51:03.388Z,15.15
2019-05-25T23:53:31.995Z,15.50
2019-05-25T23:56:02.123Z,15.35
2019-05-25T23:58:30.753Z,15.55
